createdAt,value
2022-08-24T00:00:50.500Z,20.70
2022-08-24T00:03:19.853Z,20.77
2022-08-24T00:05:49.050Z,15.45
2022-08-24T00:08:19.167Z,15.82
2022-08-24T00:10:48.963Z,16.67
2022-08-24T00:13:18.820Z,17.98
2022-08-24T00:15:49.315Z,16.38
2022-08-24T00:18:18.631Z,18.30
2022-08-24T00:20:48.536Z,20.63
2022-08-24T00:23:18.141Z,18.10
2022-08-24T00:25:47.761Z,14.30
2022-08-24T00:28:16.952Z,13.70
2022-08-24T00:30:45.953Z,20.05
2022-08-24T00:33:16.716Z,18.88
2022-08-24T00:35:45.876Z,19.58
2022-08-24T00:38:14.929Z,22.73
2022-08-24T00:40:49.787Z,18.75
2022-08-24T00:43:21.821Z,24.20
2022-08-24T00:45:59.441Z,20.83
2022-08-24T00:48:34.894Z,22.73
2022-08-24T00:51:08.744Z,24.02
2022-08-24T00:53:46.706Z,27.55
2022-08-24T00:56:21.780Z,19.88
2022-08-24T00:58:57.464Z,20.40
2022-08-24T01:01:29.706Z,20.52
2022-08-24T01:04:00.601Z,25.70
2022-08-24T01:06:30.211Z,21.08
2022-08-24T01:08:59.534Z,28.08
2022-08-24T01:11:33.737Z,21.52
2022-08-24T01:14:05.397Z,22.58
2022-08-24T01:16:52.764Z,23.48
2022-08-24T01:19:34.739Z,24.92
2022-08-24T01:22:22.984Z,24.95
2022-08-24T01:24:53.766Z,25.05
2022-08-24T01:27:23.904Z,25.65
2022-08-24T01:30:00.001Z,28.10
2022-08-24T01:32:29.054Z,30.65
2022-08-24T01:34:59.443Z,18.58
2022-08-24T01:37:28.884Z,24.67
2022-08-24T01:40:01.592Z,22.90
2022-08-24T01:42:34.858Z,22.77
2022-08-24T01:45:05.759Z,27.65
2022-08-24T01:47:35.257Z,28.67
2022-08-24T01:50:05.712Z,21.92
2022-08-24T01:53:03.506Z,16.63
2022-08-24T01:55:26.625Z,25.95
2022-08-24T01:57:56.062Z,15.73
2022-08-24T02:00:25.470Z,20.83
2022-08-24T02:02:56.660Z,25.17
2022-08-24T02:05:26.647Z,19.52
2022-08-24T02:07:56.837Z,18.80
2022-08-24T02:10:29.309Z,30.30
2022-08-24T02:13:00.477Z,20.73
2022-08-24T02:15:32.206Z,20.58
2022-08-24T02:18:02.055Z,20.38
2022-08-24T02:20:31.877Z,21.00
2022-08-24T02:23:01.351Z,22.90
2022-08-24T02:25:32.233Z,23.20
2022-08-24T02:28:02.304Z,25.05
2022-08-24T02:30:32.523Z,20.23
2022-08-24T02:33:02.546Z,19.92
2022-08-24T02:35:32.278Z,17.02
2022-08-24T02:38:01.780Z,24.33
2022-08-24T02:40:34.297Z,21.27
2022-08-24T02:43:03.748Z,25.95
2022-08-24T02:45:33.771Z,23.10
2022-08-24T02:48:02.848Z,23.05
2022-08-24T02:50:32.157Z,18.17
2022-08-24T02:53:01.889Z,16.67
2022-08-24T02:55:32.998Z,26.73
2022-08-24T02:58:02.275Z,18.77
2022-08-24T03:00:31.601Z,20.08
2022-08-24T03:03:01.758Z,16.50
2022-08-24T03:05:31.261Z,20.15
2022-08-24T03:08:00.321Z,20.48
2022-08-24T03:15:44.110Z,16.13
2022-08-24T03:18:14.058Z,15.65
2022-08-24T03:20:44.626Z,19.85
2022-08-24T03:23:14.262Z,14.70
2022-08-24T03:25:44.596Z,17.58
2022-08-24T03:28:14.277Z,17.67
2022-08-24T03:30:48.491Z,19.95
2022-08-24T03:33:19.766Z,18.52
2022-08-24T03:35:49.160Z,24.73
2022-08-24T03:38:19.715Z,14.50
2022-08-24T03:40:49.145Z,14.50
2022-08-24T03:43:33.480Z,21.02
2022-08-24T03:46:07.548Z,15.02
2022-08-24T03:48:41.077Z,19.90
2022-08-24T03:51:14.721Z,14.18
2022-08-24T03:53:44.636Z,12.15
2022-08-24T03:56:13.971Z,16.17
2022-08-24T03:58:43.514Z,13.20
2022-08-24T04:01:15.661Z,23.50
2022-08-24T04:03:46.949Z,16.25
2022-08-24T04:06:19.342Z,17.20
2022-08-24T04:08:49.461Z,25.35
2022-08-24T04:11:23.094Z,22.52
2022-08-24T04:13:54.322Z,23.52
2022-08-24T04:16:27.084Z,19.85
2022-08-24T04:19:06.162Z,24.77
2022-08-24T04:21:37.234Z,24.10
2022-08-24T04:24:10.519Z,24.17
2022-08-24T04:26:45.772Z,24.00
2022-08-24T04:29:20.609Z,21.33
2022-08-24T04:31:56.452Z,23.27
2022-08-24T04:34:25.981Z,31.73
2022-08-24T04:36:55.425Z,25.33
2022-08-24T04:39:24.411Z,19.77
2022-08-24T04:41:58.954Z,20.50
2022-08-24T04:44:36.150Z,24.92
2022-08-24T04:47:08.859Z,27.25
2022-08-24T04:49:40.053Z,22.10
2022-08-24T04:52:09.989Z,25.25
2022-08-24T04:54:39.118Z,21.77
2022-08-24T04:57:17.995Z,23.57
2022-08-24T04:59:48.669Z,21.73
2022-08-24T05:02:20.978Z,22.38
2022-08-24T05:04:52.275Z,18.05
2022-08-24T05:07:21.706Z,19.55
2022-08-24T05:09:52.434Z,21.77
2022-08-24T05:12:22.956Z,23.13
2022-08-24T05:15:00.670Z,16.77
2022-08-24T05:17:33.545Z,23.77
2022-08-24T05:20:06.770Z,16.90
2022-08-24T05:22:36.325Z,20.85
2022-08-24T05:25:07.432Z,23.85
2022-08-24T05:27:37.738Z,22.67
2022-08-24T05:30:08.301Z,24.65
2022-08-24T05:32:39.508Z,23.38
2022-08-24T05:35:09.837Z,26.75
2022-08-24T05:37:40.336Z,18.63
2022-08-24T05:40:21.022Z,17.63
2022-08-24T05:42:54.816Z,18.98
2022-08-24T05:45:24.971Z,15.75
2022-08-24T05:47:55.695Z,18.73
2022-08-24T05:50:55.151Z,23.48
2022-08-24T05:53:25.837Z,18.48
2022-08-24T05:55:55.332Z,27.13
2022-08-24T05:58:30.777Z,24.58
2022-08-24T06:01:08.645Z,22.95
2022-08-24T06:03:40.847Z,20.27
2022-08-24T06:06:13.650Z,15.68
2022-08-24T06:08:45.838Z,22.15
2022-08-24T06:11:30.183Z,14.75
2022-08-24T06:16:36.649Z,19.83
2022-08-24T06:19:09.595Z,20.35
2022-08-24T06:21:39.091Z,13.23
2022-08-24T06:24:09.183Z,14.52
2022-08-24T06:26:56.458Z,18.00
2022-08-24T06:29:25.644Z,17.73
2022-08-24T06:31:59.985Z,21.58
2022-08-24T06:34:30.736Z,18.33
2022-08-24T06:36:59.924Z,16.60
2022-08-24T06:39:29.287Z,16.15
2022-08-24T06:41:59.496Z,18.58
2022-08-24T06:44:33.516Z,15.23
2022-08-24T06:47:15.831Z,22.23
2022-08-24T06:49:46.866Z,18.63
2022-08-24T06:52:16.718Z,15.77
2022-08-24T06:54:46.183Z,17.35
2022-08-24T06:57:15.539Z,20.30
2022-08-24T06:59:45.897Z,17.05
2022-08-24T07:02:16.531Z,13.80
2022-08-24T07:04:48.318Z,15.63
2022-08-24T07:07:36.596Z,20.40
2022-08-24T07:10:08.708Z,17.05
2022-08-24T07:12:40.220Z,19.17
2022-08-24T07:15:12.537Z,16.75
2022-08-24T07:17:52.045Z,15.10
2022-08-24T07:20:25.052Z,14.73
2022-08-24T07:23:13.110Z,14.70
2022-08-24T07:25:48.913Z,16.50
2022-08-24T07:28:31.631Z,17.92
2022-08-24T07:31:03.722Z,19.15
2022-08-24T07:33:39.048Z,15.55
2022-08-24T07:36:10.167Z,20.08
2022-08-24T07:38:42.258Z,23.38
2022-08-24T07:41:38.193Z,20.33
2022-08-24T07:44:01.351Z,17.98
2022-08-24T07:46:30.882Z,25.42
2022-08-24T07:49:11.405Z,16.52
2022-08-24T07:51:53.323Z,18.42
2022-08-24T07:54:23.028Z,14.15
2022-08-24T07:56:53.508Z,12.32
2022-08-24T07:59:22.946Z,14.07
2022-08-24T08:01:53.278Z,19.35
2022-08-24T08:04:25.287Z,16.45
2022-08-24T08:09:33.136Z,17.60
2022-08-24T08:12:03.061Z,11.18
2022-08-24T08:14:33.209Z,16.65
2022-08-24T08:17:02.982Z,14.45
2022-08-24T08:19:33.166Z,11.98
2022-08-24T08:22:21.927Z,15.63
2022-08-24T08:25:19.286Z,10.55
2022-08-24T08:27:48.793Z,17.40
2022-08-24T08:30:18.683Z,11.02
2022-08-24T08:32:47.770Z,13.68
2022-08-24T08:35:17.150Z,10.65
2022-08-24T08:37:48.295Z,15.13
2022-08-24T08:40:31.060Z,15.98
2022-08-24T08:43:07.576Z,12.32
2022-08-24T08:45:58.766Z,13.40
2022-08-24T08:49:24.751Z,13.80
2022-08-24T08:52:24.634Z,16.83
2022-08-24T08:55:11.938Z,15.07
2022-08-24T08:57:56.641Z,11.10
2022-08-24T09:00:34.882Z,14.23
2022-08-24T09:03:25.587Z,13.00
2022-08-24T09:06:38.665Z,12.07
2022-08-24T09:09:36.074Z,13.82
2022-08-24T09:12:23.292Z,13.02
2022-08-24T09:15:15.958Z,10.73
2022-08-24T09:18:04.881Z,10.75
2022-08-24T09:21:04.699Z,16.00
2022-08-24T09:23:45.682Z,16.63
2022-08-24T09:26:27.267Z,9.70
2022-08-24T09:29:11.385Z,12.90
2022-08-24T09:31:57.402Z,9.52
2022-08-24T09:34:37.365Z,10.30
2022-08-24T09:37:30.202Z,10.93
2022-08-24T09:40:12.823Z,7.40
2022-08-24T09:43:17.506Z,10.30
2022-08-24T09:46:25.369Z,11.35
2022-08-24T09:49:23.996Z,10.25
2022-08-24T09:52:36.786Z,14.18
2022-08-24T09:55:33.472Z,13.20
2022-08-24T09:58:14.355Z,10.13
2022-08-24T10:00:48.956Z,14.55
2022-08-24T10:03:48.570Z,9.82
2022-08-24T10:06:31.471Z,9.18
2022-08-24T10:09:15.540Z,11.10
2022-08-24T10:12:00.292Z,11.82
2022-08-24T10:14:45.881Z,8.95
2022-08-24T10:17:23.314Z,14.25
2022-08-24T10:20:06.902Z,8.93
2022-08-24T10:23:02.606Z,11.15
2022-08-24T10:25:39.494Z,8.90
2022-08-24T10:28:45.874Z,10.85
2022-08-24T10:31:20.424Z,11.80
2022-08-24T10:34:08.241Z,9.50
2022-08-24T10:37:02.460Z,11.00
2022-08-24T10:42:58.770Z,8.77
2022-08-24T10:46:02.501Z,11.65
2022-08-24T10:48:54.614Z,9.30
2022-08-24T10:51:37.915Z,12.10
2022-08-24T10:54:12.329Z,8.90
2022-08-24T10:56:44.574Z,12.25
2022-08-24T10:59:23.950Z,9.93
2022-08-24T11:02:08.420Z,11.88
2022-08-24T11:04:43.535Z,11.55
2022-08-24T11:07:20.535Z,13.68
2022-08-24T11:09:56.398Z,9.52
2022-08-24T11:12:33.676Z,12.95
2022-08-24T11:15:06.049Z,14.75
2022-08-24T11:17:37.836Z,18.08
2022-08-24T11:20:27.800Z,15.20
2022-08-24T11:23:05.250Z,15.20
2022-08-24T11:25:38.703Z,15.23
2022-08-24T11:28:20.698Z,12.85
2022-08-24T11:30:50.323Z,18.58
2022-08-24T11:33:32.195Z,15.35
2022-08-24T11:36:02.833Z,10.88
2022-08-24T11:38:35.084Z,10.75
2022-08-24T11:41:14.455Z,18.50
2022-08-24T11:43:59.547Z,18.60
2022-08-24T11:46:38.388Z,17.00
2022-08-24T11:49:15.526Z,15.73
2022-08-24T11:51:50.298Z,11.63
2022-08-24T11:54:30.066Z,12.98
2022-08-24T11:57:12.776Z,15.10
2022-08-24T11:59:51.861Z,9.85
2022-08-24T12:02:29.963Z,15.40
2022-08-24T12:05:09.899Z,10.98
2022-08-24T12:07:52.380Z,8.85
2022-08-24T12:10:32.819Z,11.13
2022-08-24T12:13:10.386Z,9.50
2022-08-24T12:15:51.808Z,12.40
2022-08-24T12:18:31.080Z,10.82
2022-08-24T12:21:01.398Z,8.75
2022-08-24T12:23:38.704Z,8.98
2022-08-24T12:26:13.388Z,6.38
2022-08-24T12:28:53.657Z,5.85
2022-08-24T12:31:37.751Z,10.25
2022-08-24T12:34:14.612Z,7.45
2022-08-24T12:36:54.833Z,9.27
2022-08-24T12:39:27.559Z,6.78
2022-08-24T12:42:17.214Z,12.50
2022-08-24T12:44:56.766Z,9.90
2022-08-24T12:47:31.463Z,9.00
2022-08-24T12:50:07.198Z,5.35
2022-08-24T12:53:08.981Z,6.22
2022-08-24T12:56:08.306Z,8.77
2022-08-24T12:58:58.440Z,9.38
2022-08-24T13:01:33.723Z,8.82
2022-08-24T13:04:20.111Z,5.40
2022-08-24T13:06:57.744Z,4.00
2022-08-24T13:09:33.227Z,4.47
2022-08-24T13:12:41.771Z,6.72
2022-08-24T13:15:42.756Z,6.55
2022-08-24T13:18:42.867Z,7.55
2022-08-24T13:21:33.931Z,5.65
2022-08-24T13:24:48.237Z,7.00
2022-08-24T13:28:03.048Z,5.68
2022-08-24T13:31:04.478Z,7.57
2022-08-24T13:33:38.867Z,7.20
2022-08-24T13:36:47.282Z,9.57
2022-08-24T13:39:49.088Z,7.18
2022-08-24T13:42:39.995Z,4.77
2022-08-24T13:45:26.203Z,6.10
2022-08-24T13:48:05.193Z,6.55
2022-08-24T13:50:43.716Z,3.58
2022-08-24T13:53:44.514Z,5.65
2022-08-24T13:56:32.686Z,3.45
2022-08-24T13:59:12.436Z,5.07
2022-08-24T14:02:01.096Z,6.57
2022-08-24T14:04:55.127Z,6.75
2022-08-24T14:07:29.915Z,7.07
2022-08-24T14:10:11.939Z,6.93
2022-08-24T14:12:52.081Z,8.02
2022-08-24T14:15:35.063Z,9.50
2022-08-24T14:18:11.644Z,5.78
2022-08-24T14:21:05.963Z,6.20
2022-08-24T14:23:57.640Z,7.22
2022-08-24T14:27:07.233Z,4.97
2022-08-24T14:29:44.321Z,7.43
2022-08-24T14:32:40.797Z,6.18
2022-08-24T14:35:36.337Z,6.45
2022-08-24T14:38:33.322Z,5.68
2022-08-24T14:41:21.075Z,7.50
2022-08-24T14:44:15.105Z,6.60
2022-08-24T14:46:53.022Z,6.35
2022-08-24T14:49:30.482Z,7.72
2022-08-24T14:52:24.888Z,5.57
2022-08-24T14:55:07.103Z,5.22
2022-08-24T15:00:16.105Z,10.43
2022-08-24T15:03:06.596Z,7.65
2022-08-24T15:05:44.003Z,7.03
2022-08-24T15:08:28.914Z,6.35
2022-08-24T15:11:02.664Z,7.57
2022-08-24T15:13:38.610Z,9.88
2022-08-24T15:16:13.148Z,10.45
2022-08-24T15:18:49.352Z,9.38
2022-08-24T15:21:41.451Z,11.93
2022-08-24T15:24:20.732Z,10.35
2022-08-24T15:27:15.611Z,9.50
2022-08-24T15:29:53.223Z,7.25
2022-08-24T15:32:28.243Z,9.82
2022-08-24T15:34:59.513Z,9.82
2022-08-24T15:37:35.113Z,11.60
2022-08-24T15:40:10.946Z,9.20
2022-08-24T15:42:42.991Z,11.35
2022-08-24T15:45:14.798Z,10.88
2022-08-24T15:47:51.889Z,10.40
2022-08-24T15:50:26.405Z,13.75
2022-08-24T15:53:01.109Z,8.68
2022-08-24T15:55:42.238Z,11.30
2022-08-24T15:58:30.519Z,15.18
2022-08-24T16:01:36.263Z,10.80
2022-08-24T16:04:11.775Z,14.73
2022-08-24T16:06:45.342Z,10.80
2022-08-24T16:09:35.643Z,13.68
2022-08-24T16:12:12.829Z,11.18
2022-08-24T16:14:47.566Z,10.32
2022-08-24T16:17:28.180Z,10.55
2022-08-24T16:20:00.678Z,8.65
2022-08-24T16:22:36.178Z,12.80
2022-08-24T16:25:25.521Z,12.35
2022-08-24T16:28:07.823Z,5.45
2022-08-24T16:30:48.349Z,9.60
2022-08-24T16:33:44.193Z,12.40
2022-08-24T16:36:17.821Z,8.85
2022-08-24T16:38:50.842Z,10.15
2022-08-24T16:41:23.797Z,8.25
2022-08-24T16:43:53.645Z,9.38
2022-08-24T16:46:24.944Z,9.80
2022-08-24T16:48:55.182Z,7.93
2022-08-24T16:51:25.486Z,10.60
2022-08-24T16:53:55.127Z,10.32
2022-08-24T16:56:26.224Z,7.65
2022-08-24T16:58:56.076Z,10.80
2022-08-24T17:01:25.995Z,7.20
2022-08-24T17:03:55.612Z,5.63
2022-08-24T17:06:25.227Z,14.73
2022-08-24T17:08:55.099Z,11.40
2022-08-24T17:11:27.199Z,14.13
2022-08-24T17:13:56.922Z,12.00
2022-08-24T17:16:26.403Z,7.22
2022-08-24T17:18:55.915Z,20.88
2022-08-24T17:21:25.239Z,16.52
2022-08-24T17:23:54.429Z,9.25
2022-08-24T17:26:26.960Z,7.20
2022-08-24T17:28:56.972Z,13.13
2022-08-24T17:31:26.376Z,8.77
2022-08-24T17:33:55.860Z,9.52
2022-08-24T17:36:26.157Z,7.20
2022-08-24T17:39:03.165Z,13.35
2022-08-24T17:41:34.622Z,9.43
2022-08-24T17:44:04.678Z,11.10
2022-08-24T17:46:37.253Z,8.95
2022-08-24T17:49:07.738Z,9.63
2022-08-24T17:51:37.330Z,7.60
2022-08-24T17:54:08.156Z,10.60
2022-08-24T17:56:41.009Z,13.30
2022-08-24T17:59:26.454Z,7.93
2022-08-24T18:02:00.500Z,7.97
2022-08-24T18:04:34.051Z,12.52
2022-08-24T18:07:05.992Z,8.68
2022-08-24T18:09:42.109Z,12.13
2022-08-24T18:12:13.065Z,13.32
2022-08-24T18:14:43.372Z,12.65
2022-08-24T18:17:21.110Z,12.73
2022-08-24T18:19:54.175Z,19.27
2022-08-24T18:22:23.468Z,13.18
2022-08-24T18:24:52.809Z,17.80
2022-08-24T18:27:28.898Z,14.60
2022-08-24T18:30:01.325Z,13.18
2022-08-24T18:32:37.730Z,10.05
2022-08-24T18:35:09.871Z,10.65
2022-08-24T18:37:39.165Z,15.60
2022-08-24T18:40:21.390Z,15.50
2022-08-24T18:42:52.514Z,15.70
2022-08-24T18:45:22.987Z,10.73
2022-08-24T18:47:53.302Z,10.48
2022-08-24T18:50:23.567Z,10.57
2022-08-24T18:52:52.859Z,16.45
2022-08-24T18:55:23.110Z,12.10
2022-08-24T18:57:54.336Z,11.35
2022-08-24T19:00:24.080Z,8.85
2022-08-24T19:02:57.959Z,12.50
2022-08-24T19:05:27.983Z,13.40
2022-08-24T19:07:57.424Z,9.13
2022-08-24T19:10:28.821Z,9.68
2022-08-24T19:13:03.283Z,7.05
2022-08-24T19:15:40.342Z,9.33
2022-08-24T19:18:12.677Z,12.10
2022-08-24T19:20:47.953Z,11.70
2022-08-24T19:23:22.430Z,13.15
2022-08-24T19:25:55.879Z,7.70
2022-08-24T19:28:27.584Z,15.10
2022-08-24T19:31:00.511Z,10.82
2022-08-24T19:33:37.148Z,14.02
2022-08-24T19:36:07.240Z,9.30
2022-08-24T19:38:37.010Z,12.02
2022-08-24T19:41:12.676Z,10.30
2022-08-24T19:43:58.512Z,13.07
2022-08-24T19:46:28.159Z,15.27
2022-08-24T19:48:57.583Z,11.85
2022-08-24T19:51:27.081Z,8.18
2022-08-24T19:53:58.697Z,9.02
2022-08-24T19:56:32.549Z,20.15
2022-08-24T19:59:07.782Z,13.27
2022-08-24T20:01:38.383Z,13.57
2022-08-24T20:04:08.492Z,13.98
2022-08-24T20:06:38.738Z,11.88
2022-08-24T20:09:08.420Z,12.82
2022-08-24T20:11:39.435Z,9.63
2022-08-24T20:14:10.287Z,9.10
2022-08-24T20:16:43.578Z,15.70
2022-08-24T20:19:15.793Z,12.77
2022-08-24T20:21:45.145Z,9.50
2022-08-24T20:24:15.316Z,13.80
2022-08-24T20:26:46.841Z,10.27
2022-08-24T20:29:18.238Z,13.00
2022-08-24T20:31:50.617Z,9.45
2022-08-24T20:34:21.505Z,11.50
2022-08-24T20:36:52.017Z,7.22
2022-08-24T20:39:24.970Z,12.15
2022-08-24T20:41:54.487Z,9.98
2022-08-24T20:44:25.067Z,12.68
2022-08-24T20:46:55.269Z,12.48
2022-08-24T20:49:27.868Z,13.32
2022-08-24T20:52:00.622Z,11.02
2022-08-24T20:54:29.908Z,8.52
2022-08-24T20:56:59.113Z,11.73
2022-08-24T20:59:29.852Z,9.45
2022-08-24T21:02:00.259Z,13.57
2022-08-24T21:04:30.602Z,7.90
2022-08-24T21:06:59.854Z,11.40
2022-08-24T21:09:29.413Z,8.45
2022-08-24T21:11:58.578Z,8.82
2022-08-24T21:14:29.287Z,12.35
2022-08-24T21:17:01.013Z,14.55
2022-08-24T21:19:30.730Z,12.77
2022-08-24T21:22:00.030Z,10.23
2022-08-24T21:24:29.441Z,12.68
2022-08-24T21:26:59.939Z,15.65
2022-08-24T21:29:33.120Z,15.23
2022-08-24T21:32:19.583Z,16.33
2022-08-24T21:34:48.976Z,18.33
2022-08-24T21:37:20.275Z,17.67
2022-08-24T21:39:50.094Z,12.52
2022-08-24T21:42:20.209Z,11.88
2022-08-24T21:44:50.678Z,18.25
2022-08-24T21:47:20.279Z,18.60
2022-08-24T21:49:49.480Z,14.50
2022-08-24T21:52:18.584Z,12.55
2022-08-24T21:54:47.968Z,15.05
2022-08-24T21:57:16.952Z,16.00
2022-08-24T21:59:46.273Z,18.00
2022-08-24T22:02:20.568Z,17.38
2022-08-24T22:04:56.044Z,11.50
2022-08-24T22:07:26.141Z,11.82
2022-08-24T22:09:55.267Z,18.42
2022-08-24T22:12:24.283Z,16.10
2022-08-24T22:14:53.493Z,12.32
2022-08-24T22:17:23.954Z,17.33
2022-08-24T22:19:52.922Z,18.35
2022-08-24T22:22:22.461Z,18.58
2022-08-24T22:24:51.641Z,15.82
2022-08-24T22:27:21.146Z,22.05
2022-08-24T22:29:54.574Z,13.52
2022-08-24T22:32:25.767Z,14.85
2022-08-24T22:34:55.489Z,14.52
2022-08-24T22:37:24.556Z,13.80
2022-08-24T22:39:53.551Z,19.23
2022-08-24T22:42:22.909Z,12.82
2022-08-24T22:44:52.134Z,12.43
2022-08-24T22:47:21.241Z,12.50
2022-08-24T22:49:54.345Z,12.00
2022-08-24T22:52:23.644Z,12.63
2022-08-24T22:54:52.881Z,15.68
2022-08-24T22:57:21.885Z,24.20
2022-08-24T22:59:51.142Z,10.73
2022-08-24T23:02:20.708Z,20.02
2022-08-24T23:04:52.537Z,22.08
2022-08-24T23:07:22.162Z,12.25
2022-08-24T23:09:51.517Z,17.98
2022-08-24T23:12:22.961Z,14.90
2022-08-24T23:14:53.552Z,18.05
2022-08-24T23:17:23.637Z,14.43
2022-08-24T23:20:05.810Z,14.18
2022-08-24T23:22:38.705Z,14.65
2022-08-24T23:25:09.756Z,13.05
2022-08-24T23:27:39.263Z,13.70
2022-08-24T23:30:11.518Z,10.43
2022-08-24T23:32:41.269Z,14.90
2022-08-24T23:35:12.222Z,16.35
2022-08-24T23:37:42.282Z,13.48
2022-08-24T23:40:12.606Z,17.15
2022-08-24T23:42:41.808Z,15.70
2022-08-24T23:45:12.407Z,16.38
2022-08-24T23:47:42.683Z,13.77
2022-08-24T23:50:13.550Z,10.52
2022-08-24T23:52:42.894Z,15.50
2022-08-24T23:55:21.323Z,12.88
2022-08-24T23:57:52.712Z,15.68
